createdAt,value
2019-06-26T04:46:21.958Z,15.60
2019-06-26T04:48:53.625Z,14.90
2019-06-26T04:51:25.709Z,15.60
2019-06-26T04:53:57.148Z,14.70
2019-06-26T04:58:59.444Z,14.95
2019-06-26T05:06:32.515Z,14.50
2019-06-26T05:09:05.602Z,13.30
2019-06-26T05:11:37.092Z,13.10
2019-06-26T05:14:08.401Z,14.10
2019-06-26T05:16:40.991Z,13.90
2019-06-26T05:21:42.632Z,14.30
2019-06-26T05:44:20.714Z,12.47
2019-06-26T05:46:52.029Z,13.30
2019-06-26T05:49:24.066Z,12.33
2019-06-26T05:51:56.317Z,12.05
2019-06-26T05:54:28.439Z,11.85
2019-06-26T05:57:01.050Z,12.00
2019-06-26T06:04:35.191Z,12.07
2019-06-26T06:07:06.893Z,11.70
2019-06-26T06:12:11.730Z,11.38
2019-06-26T06:14:43.662Z,11.83
2019-06-26T06:19:45.580Z,11.50
2019-06-26T06:22:18.891Z,11.80
2019-06-26T06:24:50.947Z,12.00
2019-06-26T06:27:22.690Z,11.93
2019-06-26T06:29:54.778Z,11.68
2019-06-26T06:32:30.526Z,11.88
2019-06-26T06:35:02.099Z,12.10
2019-06-26T06:37:34.333Z,11.73
2019-06-26T06:42:38.808Z,11.90
2019-06-26T06:45:11.330Z,11.60
2019-06-26T06:47:43.358Z,11.43
2019-06-26T06:50:15.680Z,12.10
2019-06-26T06:52:47.474Z,11.35
2019-06-26T06:55:19.425Z,12.10
2019-06-26T06:57:54.164Z,11.70
2019-06-26T07:05:30.015Z,11.43
2019-06-26T07:08:02.317Z,11.65
2019-06-26T07:10:34.408Z,11.10
2019-06-26T07:13:06.845Z,11.83
2019-06-26T09:51:32.954Z,7.55
2019-06-26T10:42:07.646Z,7.55
2019-06-26T10:54:53.619Z,8.05
2019-06-26T18:01:33.281Z,7.90
2019-06-26T18:04:25.776Z,9.00
2019-06-26T18:26:16.858Z,7.67
2019-06-26T18:29:34.552Z,8.48
2019-06-26T18:39:27.883Z,8.43
2019-06-26T18:42:04.280Z,8.63
2019-06-26T18:44:37.491Z,7.33
2019-06-26T18:47:10.554Z,7.75
2019-06-26T18:49:42.598Z,8.63
2019-06-26T18:52:15.075Z,8.55
2019-06-26T18:55:04.421Z,8.45
2019-06-26T18:57:52.208Z,9.70
2019-06-26T19:00:46.106Z,8.75
2019-06-26T19:03:43.259Z,8.90
2019-06-26T19:06:20.567Z,9.50
2019-06-26T19:09:11.190Z,10.00
2019-06-26T19:12:35.966Z,9.15
2019-06-26T19:15:28.706Z,8.55
2019-06-26T19:21:19.028Z,9.48
2019-06-26T19:24:19.131Z,9.48
2019-06-26T19:27:01.622Z,9.25
2019-06-26T19:29:50.246Z,9.25
2019-06-26T19:33:05.310Z,9.53
2019-06-26T19:36:06.374Z,9.05
2019-06-26T19:39:29.327Z,8.73
2019-06-26T19:42:15.787Z,9.90
2019-06-26T19:45:13.639Z,8.45
2019-06-26T19:47:57.746Z,9.05
2019-06-26T19:50:42.385Z,8.28
2019-06-26T19:53:24.745Z,8.00
2019-06-26T19:55:57.025Z,8.25
2019-06-26T19:58:29.636Z,8.53
2019-06-26T20:01:11.190Z,8.33
2019-06-26T20:04:08.167Z,8.40
2019-06-26T20:07:06.460Z,8.75
2019-06-26T20:09:51.631Z,7.90
2019-06-26T20:12:31.640Z,8.08
2019-06-26T20:15:25.521Z,7.87
2019-06-26T20:18:40.090Z,8.55
2019-06-26T20:30:09.694Z,8.08
2019-06-26T20:32:41.547Z,7.70
2019-06-26T20:35:14.107Z,8.20
2019-06-26T20:42:48.607Z,7.70
2019-06-26T20:45:22.113Z,8.23
2019-06-26T20:47:55.069Z,9.30
2019-06-26T20:50:28.992Z,8.10
2019-06-26T20:53:01.395Z,7.03
2019-06-26T20:55:33.486Z,8.60
2019-06-26T20:58:05.316Z,7.87
2019-06-26T21:00:37.162Z,8.20
2019-06-26T21:08:11.593Z,9.00
2019-06-26T21:10:43.508Z,7.50
